createdAt,value
2022-12-29T00:02:20.828Z,85.93
2022-12-29T00:07:28.908Z,85.80
2022-12-29T00:12:50.063Z,86.03
2022-12-29T00:17:57.401Z,85.98
2022-12-29T00:23:20.562Z,86.22
2022-12-29T00:28:46.690Z,86.20
2022-12-29T00:34:11.613Z,86.20
2022-12-29T00:39:38.794Z,86.25
2022-12-29T00:44:46.857Z,86.19
2022-12-29T00:49:54.083Z,86.20
2022-12-29T00:54:59.855Z,86.22
2022-12-29T01:00:08.833Z,86.67
2022-12-29T01:05:16.702Z,86.64
2022-12-29T01:10:25.811Z,86.51
2022-12-29T01:15:33.135Z,86.44
2022-12-29T01:20:41.151Z,86.76
2022-12-29T01:25:46.815Z,86.94
2022-12-29T01:30:54.546Z,86.55
2022-12-29T01:36:05.752Z,86.20
2022-12-29T01:41:15.590Z,85.84
2022-12-29T01:46:29.008Z,85.15
2022-12-29T01:51:40.020Z,84.91
2022-12-29T01:56:48.353Z,84.58
2022-12-29T02:01:56.714Z,84.74
2022-12-29T02:07:08.041Z,84.86
2022-12-29T02:12:15.693Z,84.78
2022-12-29T02:17:38.354Z,84.39
2022-12-29T02:23:00.538Z,84.99
2022-12-29T02:28:34.452Z,84.78
2022-12-29T02:33:57.438Z,84.44
2022-12-29T02:39:13.800Z,84.57
2022-12-29T02:44:31.612Z,85.05
2022-12-29T02:49:49.638Z,85.05
2022-12-29T02:55:00.896Z,85.15
2022-12-29T03:00:13.715Z,85.16
2022-12-29T03:06:04.047Z,85.24
2022-12-29T03:11:33.768Z,85.16
2022-12-29T03:16:47.029Z,84.70
2022-12-29T03:22:19.120Z,84.41
2022-12-29T03:27:35.257Z,83.73
2022-12-29T03:32:48.406Z,83.45
2022-12-29T03:38:01.195Z,83.64
2022-12-29T03:43:09.449Z,83.53
2022-12-29T03:48:17.231Z,82.48
2022-12-29T03:53:24.440Z,82.64
2022-12-29T03:58:30.215Z,83.01
2022-12-29T04:03:37.595Z,82.47
2022-12-29T04:08:45.517Z,82.00
2022-12-29T04:13:52.926Z,82.26
2022-12-29T04:18:58.868Z,82.78
2022-12-29T04:24:08.394Z,82.56
2022-12-29T04:29:16.240Z,82.68
2022-12-29T04:34:23.592Z,82.88
2022-12-29T04:39:30.942Z,83.36
2022-12-29T04:44:43.030Z,83.19
2022-12-29T04:49:52.406Z,83.41
2022-12-29T04:55:01.055Z,83.56
2022-12-29T05:00:11.290Z,83.54
2022-12-29T05:05:19.159Z,83.59
2022-12-29T05:10:26.798Z,83.60
2022-12-29T05:15:33.970Z,83.70
2022-12-29T05:20:41.249Z,84.00
2022-12-29T05:25:47.801Z,83.83
2022-12-29T05:30:56.032Z,83.75
2022-12-29T05:36:08.426Z,83.40
2022-12-29T05:41:16.193Z,83.15
2022-12-29T05:46:23.437Z,82.97
2022-12-29T05:51:29.355Z,82.92
2022-12-29T05:56:36.784Z,82.94
2022-12-29T06:01:44.496Z,82.84
2022-12-29T06:06:51.879Z,82.85
2022-12-29T06:11:59.489Z,82.85
2022-12-29T06:17:05.259Z,82.59
2022-12-29T06:22:13.596Z,82.64
2022-12-29T06:27:20.922Z,82.57
2022-12-29T06:32:26.625Z,82.69
2022-12-29T06:37:34.064Z,82.84
2022-12-29T06:42:41.179Z,82.90
2022-12-29T06:47:48.681Z,83.80
2022-12-29T06:52:55.966Z,84.36
2022-12-29T06:58:02.336Z,83.98
2022-12-29T07:03:09.786Z,83.90
2022-12-29T07:08:17.250Z,84.28
2022-12-29T07:13:24.762Z,84.00
2022-12-29T07:18:32.158Z,84.24
2022-12-29T07:23:37.862Z,84.22
2022-12-29T07:28:46.682Z,84.14
2022-12-29T07:33:54.485Z,84.43
2022-12-29T07:39:01.870Z,84.20
2022-12-29T07:44:10.927Z,83.79
2022-12-29T07:49:18.315Z,83.79
2022-12-29T07:54:25.933Z,83.69
2022-12-29T07:59:33.666Z,83.89
2022-12-29T08:04:41.310Z,83.52
2022-12-29T08:09:49.792Z,83.53
2022-12-29T08:14:57.096Z,83.75
2022-12-29T08:20:03.046Z,83.94
2022-12-29T08:25:11.665Z,83.65
2022-12-29T08:30:19.741Z,83.69
2022-12-29T08:35:26.921Z,83.70
2022-12-29T08:40:32.888Z,84.11
2022-12-29T08:45:40.799Z,84.06
2022-12-29T08:50:48.749Z,83.72
2022-12-29T08:56:05.203Z,83.70
2022-12-29T09:01:13.492Z,82.97
2022-12-29T09:06:21.700Z,82.10
2022-12-29T09:11:29.422Z,81.45
2022-12-29T09:16:37.489Z,80.70
2022-12-29T09:21:45.343Z,79.10
2022-12-29T09:26:51.072Z,77.76
2022-12-29T09:31:58.265Z,76.96
2022-12-29T09:37:03.899Z,76.94
2022-12-29T09:42:19.155Z,76.81
2022-12-29T09:47:27.577Z,76.16
2022-12-29T09:52:38.922Z,75.42
2022-12-29T09:57:51.082Z,74.90
2022-12-29T10:03:01.958Z,74.09
2022-12-29T10:08:26.727Z,74.13
2022-12-29T10:13:45.433Z,72.88
2022-12-29T10:19:05.163Z,71.76
2022-12-29T10:24:15.318Z,70.85
2022-12-29T10:29:26.822Z,70.61
2022-12-29T10:34:39.347Z,69.47
2022-12-29T10:39:50.360Z,68.79
2022-12-29T10:44:58.808Z,68.40
2022-12-29T10:50:08.671Z,68.25
2022-12-29T10:55:20.024Z,67.74
2022-12-29T11:00:29.307Z,67.47
2022-12-29T11:05:42.814Z,65.44
2022-12-29T11:10:59.501Z,65.82
2022-12-29T11:16:08.482Z,65.27
2022-12-29T11:21:42.233Z,64.97
2022-12-29T11:26:51.351Z,64.64
2022-12-29T11:32:01.396Z,64.22
2022-12-29T11:37:13.752Z,63.64
2022-12-29T11:42:25.252Z,63.78
2022-12-29T11:47:34.041Z,63.22
2022-12-29T11:52:42.079Z,63.01
2022-12-29T11:57:51.412Z,62.96
2022-12-29T12:03:02.792Z,62.53
2022-12-29T12:08:21.213Z,62.59
2022-12-29T12:13:37.245Z,62.16
2022-12-29T12:18:50.984Z,62.16
2022-12-29T12:24:23.082Z,62.11
2022-12-29T12:29:40.875Z,62.05
2022-12-29T12:34:48.109Z,61.60
2022-12-29T12:40:23.678Z,61.20
2022-12-29T12:46:03.612Z,61.23
2022-12-29T12:51:22.496Z,61.31
2022-12-29T12:57:02.140Z,61.07
2022-12-29T13:02:21.957Z,61.19
2022-12-29T13:07:46.671Z,61.63
2022-12-29T13:13:03.081Z,61.90
2022-12-29T13:18:22.428Z,61.12
2022-12-29T13:23:35.456Z,61.77
2022-12-29T13:28:54.349Z,61.84
2022-12-29T13:34:08.250Z,62.13
2022-12-29T13:39:21.315Z,61.79
2022-12-29T13:44:39.881Z,62.29
2022-12-29T13:49:48.321Z,62.40
2022-12-29T13:55:04.514Z,62.54
2022-12-29T14:00:18.313Z,62.82
2022-12-29T14:05:35.438Z,63.34
2022-12-29T14:10:49.546Z,63.12
2022-12-29T14:16:00.288Z,63.28
2022-12-29T14:21:20.937Z,62.87
2022-12-29T14:26:39.744Z,62.89
2022-12-29T14:31:47.033Z,63.15
2022-12-29T14:36:59.865Z,63.08
2022-12-29T14:42:13.692Z,63.78
2022-12-29T14:47:26.157Z,63.65
2022-12-29T14:52:34.243Z,64.27
2022-12-29T14:57:44.146Z,64.11
2022-12-29T15:02:57.330Z,63.92
2022-12-29T15:08:06.186Z,64.12
2022-12-29T15:13:23.929Z,64.46
2022-12-29T15:18:33.927Z,64.60
2022-12-29T15:23:41.220Z,65.08
2022-12-29T15:28:49.927Z,65.16
2022-12-29T15:34:12.300Z,65.47
2022-12-29T15:41:59.671Z,66.33
2022-12-29T15:47:14.835Z,66.92
2022-12-29T15:52:25.352Z,67.64
2022-12-29T15:57:38.666Z,67.83
2022-12-29T16:02:48.535Z,67.94
2022-12-29T16:08:01.005Z,68.46
2022-12-29T16:13:34.201Z,68.86
2022-12-29T16:18:50.492Z,69.21
2022-12-29T16:24:08.103Z,69.82
2022-12-29T16:29:18.520Z,69.97
2022-12-29T16:34:30.628Z,71.03
2022-12-29T16:39:41.675Z,71.94
2022-12-29T16:44:49.457Z,72.18
2022-12-29T16:50:13.077Z,71.60
2022-12-29T16:55:24.458Z,72.41
2022-12-29T17:00:36.623Z,72.13
2022-12-29T17:05:43.959Z,72.94
2022-12-29T17:11:08.659Z,73.06
2022-12-29T17:16:16.376Z,73.07
2022-12-29T17:21:23.622Z,73.53
2022-12-29T17:26:31.136Z,73.68
2022-12-29T17:31:39.303Z,74.00
2022-12-29T17:41:50.381Z,74.96
2022-12-29T17:46:57.877Z,74.66
2022-12-29T17:52:06.139Z,75.49
2022-12-29T17:57:17.592Z,75.54
2022-12-29T18:02:32.046Z,75.40
2022-12-29T18:07:39.997Z,75.62
2022-12-29T18:12:50.033Z,75.81
2022-12-29T18:18:01.771Z,76.59
2022-12-29T18:23:16.780Z,77.05
2022-12-29T18:28:25.395Z,77.48
2022-12-29T18:33:33.210Z,77.96
2022-12-29T18:38:41.235Z,78.22
2022-12-29T18:43:49.650Z,78.71
2022-12-29T18:48:57.166Z,78.92
2022-12-29T18:54:05.417Z,79.20
2022-12-29T18:59:13.869Z,79.87
2022-12-29T19:04:22.788Z,80.16
2022-12-29T19:09:30.233Z,80.66
2022-12-29T19:14:35.863Z,81.30
2022-12-29T19:19:43.857Z,81.48
2022-12-29T19:24:56.308Z,81.98
2022-12-29T19:30:08.921Z,81.93
2022-12-29T19:35:17.756Z,82.17
2022-12-29T19:40:27.003Z,83.09
2022-12-29T19:45:34.256Z,83.70
2022-12-29T19:50:39.716Z,83.68
2022-12-29T19:55:48.132Z,83.33
2022-12-29T20:00:55.505Z,83.67
2022-12-29T20:06:02.872Z,83.51
2022-12-29T20:11:13.489Z,83.32
2022-12-29T20:16:22.539Z,83.00
2022-12-29T20:21:29.784Z,83.29
2022-12-29T20:26:36.968Z,83.36
2022-12-29T20:31:42.525Z,83.66
2022-12-29T20:36:51.513Z,84.01
2022-12-29T20:41:59.137Z,84.50
2022-12-29T20:47:08.443Z,84.23
2022-12-29T20:52:16.052Z,84.38
2022-12-29T20:57:23.360Z,84.05
2022-12-29T21:02:30.863Z,83.66
2022-12-29T21:07:38.454Z,83.21
2022-12-29T21:12:45.845Z,83.07
2022-12-29T21:17:53.359Z,83.13
2022-12-29T21:23:01.329Z,83.08
2022-12-29T21:28:12.544Z,82.54
2022-12-29T21:33:20.843Z,82.45
2022-12-29T21:38:32.111Z,82.10
2022-12-29T21:43:40.188Z,81.72
2022-12-29T21:48:50.427Z,81.26
2022-12-29T21:54:20.846Z,80.75
2022-12-29T21:59:45.784Z,80.71
2022-12-29T22:05:10.990Z,80.64
2022-12-29T22:10:36.175Z,80.74
2022-12-29T22:15:43.792Z,80.80
2022-12-29T22:20:51.143Z,81.12
2022-12-29T22:25:56.867Z,81.52
2022-12-29T22:31:04.763Z,81.17
2022-12-29T22:36:12.900Z,80.92
2022-12-29T22:41:20.799Z,80.59
2022-12-29T22:46:28.182Z,80.85
2022-12-29T22:51:35.751Z,81.13
2022-12-29T22:56:43.418Z,81.67
2022-12-29T23:01:51.371Z,82.09
2022-12-29T23:06:59.024Z,82.14
2022-12-29T23:12:07.111Z,81.92
2022-12-29T23:17:14.623Z,81.81
2022-12-29T23:22:23.483Z,82.19
2022-12-29T23:27:31.205Z,82.67
2022-12-29T23:32:38.465Z,82.47
2022-12-29T23:37:44.125Z,82.55
2022-12-29T23:42:51.534Z,82.50
2022-12-29T23:47:58.961Z,82.88
2022-12-29T23:53:06.561Z,82.60
2022-12-29T23:58:14.798Z,82.66
